createdAt,value
2022-12-23T00:00:22.296Z,1.08
2022-12-23T00:01:22.262Z,1.07
2022-12-23T00:02:22.379Z,1.05
2022-12-23T00:03:22.388Z,1.06
2022-12-23T00:04:22.288Z,1.08
2022-12-23T00:55:32.893Z,0.50
2022-12-23T00:56:33.856Z,0.50
2022-12-23T00:57:33.841Z,0.50
2022-12-23T00:58:33.837Z,0.50
2022-12-23T00:59:33.823Z,0.50
2022-12-23T01:00:33.810Z,0.50
2022-12-23T01:01:33.936Z,0.47
2022-12-23T01:02:33.929Z,0.46
2022-12-23T01:03:33.829Z,0.49
2022-12-23T01:04:33.801Z,0.50
2022-12-23T01:05:33.789Z,0.50
2022-12-23T01:06:33.760Z,0.50
2022-12-23T01:07:33.770Z,0.50
2022-12-23T01:08:33.739Z,0.50
2022-12-23T01:09:33.737Z,0.50
2022-12-23T01:10:33.726Z,0.51
2022-12-23T01:11:33.744Z,0.51
2022-12-23T01:12:33.710Z,0.51
2022-12-23T01:13:33.703Z,0.50
2022-12-23T01:14:33.685Z,0.52
2022-12-23T01:15:33.685Z,0.50
2022-12-23T01:16:33.712Z,0.51
2022-12-23T01:17:33.671Z,0.51
2022-12-23T01:18:33.653Z,0.50
2022-12-23T01:19:33.656Z,0.52
2022-12-23T01:20:33.643Z,0.51
2022-12-23T01:21:33.623Z,0.51
2022-12-23T01:22:33.621Z,0.52
2022-12-23T01:23:33.609Z,0.50
2022-12-23T01:24:33.613Z,0.51
2022-12-23T01:25:33.594Z,0.51
2022-12-23T01:26:33.584Z,0.52
2022-12-23T01:27:33.615Z,0.50
2022-12-23T01:28:33.591Z,0.51
2022-12-23T01:29:33.561Z,0.51
2022-12-23T01:30:33.547Z,0.52
2022-12-23T01:31:33.587Z,0.51
2022-12-23T01:32:33.530Z,0.52
2022-12-23T01:33:33.526Z,0.52
2022-12-23T01:34:37.028Z,0.51
2022-12-23T01:35:33.509Z,0.51
2022-12-23T01:36:33.492Z,0.51
2022-12-23T01:37:33.489Z,0.51
2022-12-23T01:38:33.476Z,0.51
2022-12-23T01:39:33.485Z,0.52
2022-12-23T01:40:33.458Z,0.53
2022-12-23T01:41:33.454Z,0.52
2022-12-23T01:42:33.452Z,0.53
2022-12-23T01:43:33.453Z,0.53
2022-12-23T01:44:33.419Z,0.52
2022-12-23T01:45:33.502Z,0.52
2022-12-23T01:46:33.477Z,0.53
2022-12-23T01:47:33.418Z,0.53
2022-12-23T01:48:33.399Z,0.53
2022-12-23T01:49:33.381Z,0.53
2022-12-23T01:50:33.377Z,0.53
2022-12-23T01:51:33.372Z,0.54
2022-12-23T01:52:33.354Z,0.54
2022-12-23T01:53:33.347Z,0.54
2022-12-23T01:54:33.342Z,0.54
2022-12-23T01:55:33.325Z,0.54
2022-12-23T01:56:33.326Z,0.55
2022-12-23T01:57:33.312Z,0.54
2022-12-23T01:58:33.310Z,0.54
2022-12-23T01:59:33.389Z,0.55
2022-12-23T02:00:33.277Z,0.54
2022-12-23T02:01:33.400Z,0.55
2022-12-23T02:02:33.386Z,0.56
2022-12-23T02:03:33.294Z,0.55
2022-12-23T02:04:33.301Z,0.54
2022-12-23T02:05:33.235Z,0.54
2022-12-23T02:06:33.223Z,0.55
2022-12-23T02:07:33.218Z,0.55
2022-12-23T02:08:33.238Z,0.55
2022-12-23T02:09:33.208Z,0.55
2022-12-23T02:10:33.198Z,0.55
2022-12-23T02:11:33.187Z,0.55
2022-12-23T02:12:33.211Z,0.54
2022-12-23T02:13:33.160Z,0.55
2022-12-23T02:14:33.159Z,0.55
2022-12-23T02:15:33.170Z,0.55
2022-12-23T02:16:33.237Z,0.56
2022-12-23T02:17:33.128Z,0.56
2022-12-23T02:18:33.129Z,0.55
2022-12-23T02:19:33.107Z,0.55
2022-12-23T02:20:33.099Z,0.55
2022-12-23T02:21:33.100Z,0.56
2022-12-23T02:22:33.084Z,0.56
2022-12-23T02:23:33.244Z,0.56
2022-12-23T02:24:33.065Z,0.57
2022-12-23T02:25:33.053Z,0.56
2022-12-23T02:26:33.056Z,0.56
2022-12-23T02:27:33.037Z,0.56
2022-12-23T02:28:33.032Z,0.57
2022-12-23T02:29:33.030Z,0.56
2022-12-23T02:30:33.070Z,0.55
2022-12-23T02:31:33.105Z,0.56
2022-12-23T02:32:33.009Z,0.56
2022-12-23T02:33:32.991Z,0.57
2022-12-23T02:34:32.976Z,0.57
2022-12-23T02:35:32.971Z,0.55
2022-12-23T02:36:32.960Z,0.56
2022-12-23T02:37:32.954Z,0.56
2022-12-23T02:38:32.937Z,0.57
2022-12-23T02:39:32.937Z,0.56
2022-12-23T02:40:32.935Z,0.57
2022-12-23T02:41:32.914Z,0.57
2022-12-23T02:42:32.901Z,0.58
2022-12-23T02:43:32.902Z,0.58
2022-12-23T02:44:32.908Z,0.58
2022-12-23T02:45:32.877Z,0.58
2022-12-23T02:46:33.000Z,0.58
2022-12-23T02:47:32.881Z,0.58
2022-12-23T02:48:32.861Z,0.58
2022-12-23T02:49:32.843Z,0.58
2022-12-23T02:50:32.843Z,0.57
2022-12-23T02:51:32.829Z,0.57
2022-12-23T02:52:32.816Z,0.57
2022-12-23T02:53:32.803Z,0.59
2022-12-23T02:54:32.795Z,0.58
2022-12-23T02:55:32.794Z,0.58
2022-12-23T02:56:32.782Z,0.57
2022-12-23T02:57:32.788Z,0.58
2022-12-23T02:58:32.762Z,0.58
2022-12-23T02:59:32.756Z,0.58
2022-12-23T03:00:32.759Z,0.58
2022-12-23T03:01:32.853Z,0.59
2022-12-23T03:02:32.912Z,0.58
2022-12-23T03:03:32.874Z,0.58
2022-12-23T03:04:32.708Z,0.58
2022-12-23T03:05:32.705Z,0.59
2022-12-23T03:06:32.700Z,0.58
2022-12-23T03:07:32.683Z,0.58
2022-12-23T03:08:32.665Z,0.58
2022-12-23T03:09:32.658Z,0.58
2022-12-23T03:10:32.659Z,0.59
2022-12-23T03:11:32.677Z,0.59
2022-12-23T03:12:32.645Z,0.58
2022-12-23T03:13:32.627Z,0.58
2022-12-23T03:14:32.625Z,0.58
2022-12-23T03:15:32.658Z,0.59
2022-12-23T03:16:32.602Z,0.58
2022-12-23T03:17:32.598Z,0.58
2022-12-23T03:18:32.590Z,0.57
2022-12-23T03:19:32.624Z,0.58
2022-12-23T03:20:32.565Z,0.58
2022-12-23T03:21:32.577Z,0.59
2022-12-23T03:22:32.554Z,0.57
2022-12-23T03:23:32.538Z,0.57
2022-12-23T03:24:32.527Z,0.56
2022-12-23T03:25:32.528Z,0.57
2022-12-23T03:26:32.514Z,0.57
2022-12-23T03:27:32.505Z,0.55
2022-12-23T03:28:32.507Z,0.56
2022-12-23T03:29:32.488Z,0.57
2022-12-23T03:30:32.473Z,0.57
2022-12-23T03:31:32.543Z,0.56
2022-12-23T03:32:32.462Z,0.58
2022-12-23T03:33:32.452Z,0.58
2022-12-23T03:34:32.442Z,0.56
2022-12-23T03:35:32.473Z,0.56
2022-12-23T16:41:25.459Z,0.58
2022-12-23T16:42:25.395Z,0.58
2022-12-23T16:43:25.388Z,0.58
2022-12-23T16:44:25.376Z,0.58
2022-12-23T16:45:25.514Z,0.58
2022-12-23T16:46:25.483Z,0.60
2022-12-23T16:47:25.349Z,0.59
2022-12-23T16:48:25.345Z,0.60
2022-12-23T16:49:31.265Z,0.59
2022-12-23T16:50:25.326Z,0.59
2022-12-23T16:51:25.314Z,0.60
2022-12-23T16:52:25.317Z,0.60
2022-12-23T16:53:25.320Z,0.61
2022-12-23T16:54:25.524Z,0.62
2022-12-23T16:55:25.303Z,0.63
2022-12-23T16:56:25.274Z,0.63
2022-12-23T16:57:25.263Z,0.63
2022-12-23T16:58:25.307Z,0.63
2022-12-23T16:59:25.242Z,0.63
2022-12-23T17:00:25.228Z,0.63
2022-12-23T17:01:25.355Z,0.63
2022-12-23T17:02:25.344Z,0.63
2022-12-23T17:03:25.207Z,0.64
2022-12-23T17:04:25.203Z,0.64
2022-12-23T17:05:25.186Z,0.64
2022-12-23T17:06:25.175Z,0.65
2022-12-23T17:07:25.181Z,0.64
2022-12-23T17:08:25.159Z,0.65
2022-12-23T17:09:25.155Z,0.65
2022-12-23T17:10:25.148Z,0.65
2022-12-23T17:11:25.192Z,0.66
2022-12-23T17:12:25.141Z,0.65
2022-12-23T17:13:25.117Z,0.66
2022-12-23T17:14:25.107Z,0.66
2022-12-23T17:15:25.094Z,0.67
2022-12-23T17:16:25.126Z,0.66
2022-12-23T17:17:25.097Z,0.67
2022-12-23T17:18:25.075Z,0.68
2022-12-23T17:19:29.350Z,0.68
2022-12-23T17:20:25.168Z,0.68
2022-12-23T17:21:25.147Z,0.68
2022-12-23T17:22:25.146Z,0.68
2022-12-23T17:23:25.137Z,0.69
2022-12-23T17:24:25.466Z,0.68
2022-12-23T17:25:26.618Z,0.69
2022-12-23T17:26:25.321Z,0.70
2022-12-23T17:27:25.350Z,0.70
2022-12-23T17:28:25.299Z,0.69
2022-12-23T17:29:25.355Z,0.70
2022-12-23T17:30:25.287Z,0.69
2022-12-23T17:31:27.182Z,0.70
2022-12-23T17:32:25.293Z,0.71
2022-12-23T17:33:25.262Z,0.72
2022-12-23T17:34:25.254Z,0.71
2022-12-23T17:35:25.240Z,0.72
2022-12-23T17:36:25.303Z,0.71
2022-12-23T17:37:25.241Z,0.70
2022-12-23T17:38:25.209Z,0.71
2022-12-23T17:39:25.203Z,0.71
2022-12-23T17:40:25.200Z,0.71
2022-12-23T17:41:25.193Z,0.70
2022-12-23T17:42:26.171Z,0.72
2022-12-23T17:43:25.209Z,0.74
2022-12-23T17:44:25.160Z,0.73
2022-12-23T17:45:25.147Z,0.72
2022-12-23T17:46:25.224Z,0.73
2022-12-23T17:47:25.148Z,0.73
2022-12-23T17:48:31.127Z,0.71
2022-12-23T17:49:25.117Z,0.71
2022-12-23T17:50:25.127Z,0.71
2022-12-23T17:51:25.104Z,0.72
2022-12-23T17:52:25.103Z,0.73
2022-12-23T17:53:25.084Z,0.74
2022-12-23T17:54:25.103Z,0.74
2022-12-23T17:55:25.064Z,0.74
2022-12-23T17:56:25.061Z,0.74
2022-12-23T17:57:25.055Z,0.73
2022-12-23T17:58:25.043Z,0.74
2022-12-23T17:59:25.055Z,0.75
2022-12-23T18:00:31.840Z,0.75
2022-12-23T18:01:25.042Z,0.75
2022-12-23T18:02:25.105Z,0.75
2022-12-23T18:03:24.993Z,0.76
2022-12-23T18:04:24.977Z,0.77
2022-12-23T18:05:24.973Z,0.75
2022-12-23T18:06:24.979Z,0.76
2022-12-23T18:07:24.987Z,0.76
2022-12-23T18:08:24.955Z,0.76
2022-12-23T18:09:24.939Z,0.76
2022-12-23T18:10:24.929Z,0.76
2022-12-23T18:11:24.913Z,0.78
2022-12-23T18:12:25.275Z,0.77
2022-12-23T18:13:24.907Z,0.77
2022-12-23T18:14:24.890Z,0.78
2022-12-23T18:15:24.925Z,0.78
2022-12-23T18:16:24.946Z,0.79
2022-12-23T18:17:24.881Z,0.78
2022-12-23T18:18:32.088Z,0.80
2022-12-23T18:19:24.854Z,0.80
2022-12-23T18:20:24.843Z,0.80
2022-12-23T18:21:24.825Z,0.80
2022-12-23T18:22:24.830Z,0.80
2022-12-23T18:23:24.986Z,0.81
2022-12-23T18:24:24.828Z,0.82
2022-12-23T18:25:24.808Z,0.82
2022-12-23T18:26:24.816Z,0.80
2022-12-23T18:27:24.777Z,0.82
2022-12-23T18:28:24.777Z,0.80
2022-12-23T18:29:24.774Z,0.79
2022-12-23T18:30:24.753Z,0.82
2022-12-23T18:31:24.851Z,0.80
2022-12-23T18:32:24.732Z,0.82
2022-12-23T18:33:24.720Z,0.82
2022-12-23T18:34:24.711Z,0.82
2022-12-23T18:35:24.713Z,0.82
2022-12-23T18:36:24.761Z,0.82
2022-12-23T18:37:24.688Z,0.84
2022-12-23T18:38:24.705Z,0.83
2022-12-23T18:39:24.669Z,0.82
2022-12-23T18:40:29.232Z,0.83
2022-12-23T18:41:24.659Z,0.83
2022-12-23T18:42:24.639Z,0.83
2022-12-23T18:43:24.690Z,0.83
2022-12-23T18:44:24.634Z,0.83
2022-12-23T18:45:24.619Z,0.84
2022-12-23T18:46:24.826Z,0.83
2022-12-23T18:47:24.624Z,0.84
2022-12-23T18:48:24.596Z,0.84
2022-12-23T18:49:24.578Z,0.83
2022-12-23T18:50:24.568Z,0.83
2022-12-23T18:51:24.569Z,0.86
2022-12-23T18:53:25.455Z,0.87
2022-12-23T18:54:24.537Z,0.85
2022-12-23T18:55:24.522Z,0.86
2022-12-23T18:56:24.514Z,0.84
2022-12-23T18:57:24.511Z,0.85
2022-12-23T18:58:24.499Z,0.85
2022-12-23T18:59:30.067Z,0.84
2022-12-23T19:00:24.484Z,0.84
2022-12-23T19:01:24.566Z,0.85
2022-12-23T19:02:24.593Z,0.84
2022-12-23T19:03:24.487Z,0.85
2022-12-23T19:04:24.447Z,0.86
2022-12-23T19:05:24.436Z,0.86
2022-12-23T19:06:24.440Z,0.85
2022-12-23T19:07:24.421Z,0.87
2022-12-23T19:08:26.989Z,0.87
2022-12-23T19:09:24.406Z,0.87
2022-12-23T19:10:24.394Z,0.87
2022-12-23T19:11:24.384Z,0.87
2022-12-23T19:12:24.374Z,0.88
2022-12-23T19:13:24.373Z,0.88
2022-12-23T19:14:24.371Z,0.89
2022-12-23T19:15:24.355Z,0.87
2022-12-23T19:16:24.569Z,0.89
2022-12-23T19:17:24.337Z,0.89
2022-12-23T19:18:24.323Z,0.88
2022-12-23T19:19:24.339Z,0.87
2022-12-23T19:20:24.306Z,0.88
2022-12-23T19:21:24.303Z,0.87
2022-12-23T19:22:24.289Z,0.89
2022-12-23T19:23:24.281Z,0.89
2022-12-23T19:24:24.275Z,0.88
2022-12-23T19:25:24.259Z,0.87
2022-12-23T19:26:24.249Z,0.87
2022-12-23T19:27:24.243Z,0.88
2022-12-23T19:28:24.251Z,0.89
2022-12-23T19:29:24.224Z,0.90
2022-12-23T19:30:24.220Z,0.89
2022-12-23T19:31:24.293Z,0.90
2022-12-23T19:32:24.198Z,0.90
2022-12-23T19:33:24.188Z,0.89
2022-12-23T19:34:24.182Z,0.89
2022-12-23T19:35:24.199Z,0.91
2022-12-23T19:36:24.270Z,0.91
2022-12-23T19:37:24.155Z,0.88
2022-12-23T19:38:24.153Z,0.91
2022-12-23T19:39:24.173Z,0.88
2022-12-23T19:40:24.128Z,0.89
2022-12-23T19:41:24.147Z,0.90
2022-12-23T19:42:24.111Z,0.89
2022-12-23T19:43:24.132Z,0.91
2022-12-23T19:44:24.098Z,0.90
2022-12-23T19:45:24.085Z,0.91
2022-12-23T19:46:24.141Z,0.91
2022-12-23T19:47:24.059Z,0.92
2022-12-23T19:48:24.053Z,0.91
2022-12-23T19:49:24.046Z,0.90
2022-12-23T19:50:24.041Z,0.92
2022-12-23T19:51:24.061Z,0.92
2022-12-23T19:52:24.020Z,0.89
2022-12-23T19:53:24.013Z,0.92
2022-12-23T19:54:24.002Z,0.92
2022-12-23T19:57:23.979Z,0.92
2022-12-23T19:58:23.971Z,0.93
2022-12-23T19:59:23.959Z,0.92
2022-12-23T20:00:23.953Z,0.93
2022-12-23T20:01:24.089Z,0.92
2022-12-23T20:02:24.050Z,0.93
2022-12-23T20:03:23.975Z,0.92
2022-12-23T20:04:23.922Z,0.92
2022-12-23T20:05:23.906Z,0.92
2022-12-23T20:06:23.921Z,0.94
2022-12-23T20:07:23.914Z,0.93
2022-12-23T20:08:23.881Z,0.93
2022-12-23T20:09:23.865Z,0.90
2022-12-23T20:10:23.865Z,0.93
2022-12-23T20:11:23.856Z,0.91
2022-12-23T20:12:23.844Z,0.93
2022-12-23T20:13:23.836Z,0.93
2022-12-23T20:14:26.681Z,0.94
2022-12-23T20:15:23.820Z,0.95
2022-12-23T20:16:23.910Z,0.95
2022-12-23T20:17:23.825Z,0.94
2022-12-23T20:18:23.787Z,0.93
2022-12-23T20:19:23.798Z,0.93
2022-12-23T20:20:23.771Z,0.93
2022-12-23T20:21:23.769Z,0.93
2022-12-23T20:22:23.806Z,0.93
2022-12-23T20:23:23.766Z,0.92
2022-12-23T20:24:23.753Z,0.91
2022-12-23T20:25:23.737Z,0.92
2022-12-23T20:26:23.717Z,0.92
2022-12-23T20:27:27.854Z,0.93
2022-12-23T20:28:23.815Z,0.93
2022-12-23T20:29:23.793Z,0.93
2022-12-23T20:30:23.800Z,0.93
2022-12-23T20:31:23.800Z,0.92
2022-12-23T20:32:23.752Z,0.93
2022-12-23T20:33:23.745Z,0.93
2022-12-23T20:34:23.750Z,0.94
2022-12-23T20:35:23.741Z,0.94
2022-12-23T20:36:23.781Z,0.93
2022-12-23T20:37:23.714Z,0.93
2022-12-23T20:38:23.704Z,0.95
2022-12-23T20:39:23.722Z,0.94
2022-12-23T20:40:23.682Z,0.93
2022-12-23T20:41:23.678Z,0.94
2022-12-23T20:42:23.677Z,0.95
2022-12-23T20:43:23.664Z,0.94
2022-12-23T20:44:34.419Z,0.96
2022-12-23T20:45:23.643Z,0.96
2022-12-23T20:46:23.657Z,0.96
2022-12-23T20:47:23.621Z,0.97
2022-12-23T20:48:26.887Z,0.96
2022-12-23T20:49:23.608Z,0.96
2022-12-23T20:50:23.594Z,0.96
2022-12-23T20:51:23.597Z,0.97
2022-12-23T20:52:23.577Z,0.95
2022-12-23T20:53:23.573Z,0.97
2022-12-23T20:54:29.714Z,0.95
2022-12-23T20:55:23.573Z,0.96
2022-12-23T20:56:23.543Z,0.96
2022-12-23T20:57:23.543Z,0.96
2022-12-23T20:58:23.549Z,0.96
2022-12-23T20:59:23.528Z,0.96
2022-12-23T21:00:23.505Z,0.94
